Time;durP1;ratioP1;P1;durP2;ratioP2;P2;SDS_P1;SDS_P2;PMS_P1;PMS_P2;Temp;Humidity;BMP_temperature;BMP_pressure;BME280_temperature;BME280_humidity;BME280_pressure;Samples;Min_cycle;Max_cycle;Signal;HPM_P1;HPM_P2
2023/03/02 00:01:07;;;;;;;13.30;2.78;;;;;;;6.72;100.00;102687.72;4932619;29;20528;-84
2023/03/02 00:03:39;;;;;;;16.42;3.08;;;;;;;6.55;100.00;102655.44;4932246;29;20048;-84
2023/03/02 00:06:08;;;;;;;11.80;3.08;;;;;;;6.56;100.00;102668.47;4932485;29;20079;-84
2023/03/02 00:08:36;;;;;;;18.75;3.45;;;;;;;6.60;100.00;102658.97;4984198;28;20072;-85
2023/03/02 00:11:03;;;;;;;20.55;3.95;;;;;;;6.71;100.00;102659.06;4934191;28;20481;-85
2023/03/02 00:13:33;;;;;;;16.15;2.97;;;;;;;6.79;100.00;102673.91;4933346;28;20056;-85
2023/03/02 00:16:00;;;;;;;15.32;3.17;;;;;;;6.90;100.00;102691.34;4940305;29;20055;-85
2023/03/02 00:18:26;;;;;;;20.27;3.90;;;;;;;6.54;100.00;102633.75;4932556;29;20131;-84
2023/03/02 00:20:53;;;;;;;17.13;3.53;;;;;;;6.48;100.00;102618.09;4927682;28;20417;-84
2023/03/02 00:23:20;;;;;;;11.45;2.80;;;;;;;6.68;100.00;102657.31;4932377;29;20056;-85
2023/03/02 00:25:47;;;;;;;17.08;3.55;;;;;;;6.58;100.00;102652.88;4926902;29;20051;-85
2023/03/02 00:28:14;;;;;;;21.30;3.40;;;;;;;6.70;100.00;102665.16;4933220;29;20047;-84
2023/03/02 00:30:40;;;;;;;17.92;4.45;;;;;;;6.83;100.00;102690.41;4949979;28;20056;-84
2023/03/02 00:33:07;;;;;;;18.45;3.15;;;;;;;6.44;100.00;102617.16;4933057;29;20059;-84
2023/03/02 00:35:39;;;;;;;20.05;3.55;;;;;;;6.77;100.00;102669.56;4959875;28;20193;-85
2023/03/02 00:38:07;;;;;;;20.03;3.17;;;;;;;6.50;100.00;102612.88;4931922;29;20158;-84
2023/03/02 00:40:34;;;;;;;17.80;3.22;;;;;;;6.52;100.00;102621.59;4926031;29;20048;-84
2023/03/02 00:43:01;;;;;;;12.48;2.92;;;;;;;6.46;100.00;102598.97;4932313;29;20467;-84
2023/03/02 00:45:28;;;;;;;17.88;3.75;;;;;;;6.70;100.00;102641.72;4965141;28;20054;-85
2023/03/02 00:47:55;;;;;;;16.02;3.05;;;;;;;6.32;100.00;102590.16;4933987;29;20079;-84
2023/03/02 00:50:22;;;;;;;26.77;3.85;;;;;;;6.48;100.00;102631.13;4933870;28;20055;-84
2023/03/02 00:52:49;;;;;;;14.52;3.78;;;;;;;6.31;100.00;102604.06;4931791;28;20078;-84
2023/03/02 00:55:15;;;;;;;16.20;3.30;;;;;;;6.74;100.00;102656.50;4932807;28;20051;-84
2023/03/02 00:57:42;;;;;;;13.68;4.00;;;;;;;6.38;100.00;102617.13;4932899;29;20056;-84
2023/03/02 01:00:10;;;;;;;17.08;3.70;;;;;;;6.38;100.00;102629.28;4932851;29;20048;-84
2023/03/02 01:02:42;;;;;;;20.33;3.10;;;;;;;6.36;100.00;102615.38;4931646;29;20058;-85
2023/03/02 01:05:09;;;;;;;;;;;;;;;6.85;100.00;102675.69;4933328;28;20062;-84
2023/03/02 01:07:36;;;;;;;14.10;2.45;;;;;;;6.30;100.00;102592.75;4933030;28;19922;-85
2023/03/02 01:10:03;;;;;;;16.48;3.35;;;;;;;6.54;100.00;102618.16;4930933;29;20044;-85
2023/03/02 01:12:30;;;;;;;11.73;2.58;;;;;;;6.40;100.00;102583.31;4931501;29;20055;-84
2023/03/02 01:14:57;;;;;;;14.25;3.03;;;;;;;6.50;100.00;102597.28;4944649;28;20451;-85
2023/03/02 01:17:24;;;;;;;17.38;3.10;;;;;;;6.79;100.00;102660.88;4932251;29;20401;-84
2023/03/02 01:19:52;;;;;;;15.07;3.03;;;;;;;6.43;100.00;102602.44;4932141;28;20093;-86
2023/03/02 01:22:19;;;;;;;19.77;3.38;;;;;;;6.71;100.00;102622.63;4932111;29;20055;-85
2023/03/02 01:24:46;;;;;;;15.77;3.70;;;;;;;6.38;100.00;102585.03;4932261;28;20060;-85
2023/03/02 01:27:13;;;;;;;17.58;2.60;;;;;;;6.24;100.00;102571.88;4931422;28;20044;-82
2023/03/02 01:29:40;;;;;;;13.23;2.95;;;;;;;6.63;100.00;102631.22;4932113;29;20505;-83
2023/03/02 01:32:07;;;;;;;21.73;5.60;;;;;;;6.30;100.00;102589.28;4931613;28;20051;-84
2023/03/02 01:34:34;;;;;;;14.15;3.17;;;;;;;6.13;100.00;102570.91;4931584;29;20075;-83
2023/03/02 01:37:01;;;;;;;14.40;3.22;;;;;;;6.23;100.00;102565.81;4932453;28;20055;-83
2023/03/02 01:39:28;;;;;;;15.93;2.80;;;;;;;6.43;100.00;102585.97;4944480;28;20397;-86
2023/03/02 01:41:55;;;;;;;15.48;3.33;;;;;;;6.64;100.00;102619.13;4925668;29;20051;-83
2023/03/02 01:44:42;;;;;;;9.00;2.05;;;;;;;6.86;100.00;102634.91;4931373;28;20477;-85
2023/03/02 01:47:16;;;;;;;6.28;1.83;;;;;;;6.87;100.00;102637.53;4935475;29;20055;-83
2023/03/02 01:49:56;;;;;;;11.95;2.47;;;;;;;6.72;100.00;102619.16;4920239;29;20044;-83
2023/03/02 01:52:25;;;;;;;11.07;2.58;;;;;;;6.31;100.00;102559.81;4931986;29;20508;-83
2023/03/02 01:54:57;;;;;;;11.13;2.25;;;;;;;6.56;100.00;102606.00;4931807;29;20054;-83
2023/03/02 01:57:31;;;;;;;18.65;3.08;;;;;;;6.40;100.00;102576.38;4932125;29;20405;-84
2023/03/02 02:00:07;;;;;;;16.73;2.70;;;;;;;6.41;100.00;102578.13;4931509;29;20098;-84
2023/03/02 02:02:35;;;;;;;13.93;2.63;;;;;;;6.42;100.00;102555.56;4931143;28;20063;-84
2023/03/02 02:05:02;;;;;;;15.15;4.18;;;;;;;6.54;100.00;102583.44;4931435;29;20134;-83
2023/03/02 02:07:30;;;;;;;15.18;3.53;;;;;;;6.68;100.00;102579.22;4930259;29;20062;-84
2023/03/02 02:09:57;;;;;;;10.13;2.38;;;;;;;6.78;100.00;102593.16;4916661;29;20044;-83
2023/03/02 02:12:24;;;;;;;9.43;2.03;;;;;;;6.92;100.00;102601.97;4931827;28;20058;-84
2023/03/02 02:14:52;;;;;;;18.77;3.67;;;;;;;6.53;100.00;102563.47;4932344;29;20055;-83
2023/03/02 02:17:19;;;;;;;11.57;2.63;;;;;;;6.42;100.00;102534.75;4931417;28;20052;-84
2023/03/02 02:20:15;;;;;;;10.77;2.85;;;;;;;6.86;100.00;102596.72;4931857;29;20044;-84
2023/03/02 02:23:09;;;;;;;14.48;2.35;;;;;;;6.82;100.00;102588.00;4942945;28;20441;-83
2023/03/02 02:25:38;;;;;;;11.07;2.13;;;;;;;6.95;100.00;102586.38;4932136;29;20055;-83
2023/03/02 02:28:15;;;;;;;10.55;2.25;;;;;;;6.71;100.00;102554.94;4927605;28;20048;-83
2023/03/02 02:30:43;;;;;;;9.20;2.13;;;;;;;6.53;100.00;102514.03;4923163;29;20507;-84
2023/03/02 02:33:15;;;;;;;10.95;2.63;;;;;;;6.76;100.00;102555.84;4934109;28;20055;-83
2023/03/02 02:35:45;;;;;;;18.52;3.33;;;;;;;6.57;100.00;102520.97;4934462;29;20055;-82
2023/03/02 02:38:15;;;;;;;10.35;1.88;;;;;;;6.97;100.00;102586.38;4933863;28;20048;-83
2023/03/02 02:40:49;;;;;;;12.02;2.80;;;;;;;6.87;100.00;102576.75;4933500;28;20055;-84
2023/03/02 02:43:19;;;;;;;15.13;2.60;;;;;;;6.60;100.00;102542.69;4922742;29;20077;-83
2023/03/02 02:45:51;;;;;;;13.20;2.38;;;;;;;6.46;100.00;102500.97;4935387;29;20055;-83
2023/03/02 02:48:22;;;;;;;10.80;2.42;;;;;;;6.71;100.00;102539.31;4933846;29;20131;-83
2023/03/02 02:50:58;;;;;;;14.82;2.78;;;;;;;6.50;100.00;102495.78;4935163;29;20048;-83
2023/03/02 02:53:39;;;;;;;12.02;2.60;;;;;;;6.75;100.00;102528.09;4922149;29;20048;-84
2023/03/02 02:56:11;;;;;;;9.85;3.05;;;;;;;6.70;100.00;102503.75;4933912;29;20055;-83
2023/03/02 02:58:45;;;;;;;10.70;2.15;;;;;;;6.55;100.00;102496.69;4934118;29;20138;-84
2023/03/02 03:01:14;;;;;;;18.15;2.38;;;;;;;6.51;100.00;102487.13;4933666;29;20051;-84
2023/03/02 03:03:50;;;;;;;10.73;2.50;;;;;;;6.96;100.00;102563.81;4933799;29;20051;-84
2023/03/02 03:06:22;;;;;;;17.45;3.38;;;;;;;6.29;100.00;102452.28;4934139;29;20382;-84
2023/03/02 03:08:52;;;;;;;18.17;2.50;;;;;;;6.66;100.00;102539.31;4922246;28;20067;-84
2023/03/02 03:11:28;;;;;;;25.70;3.35;;;;;;;6.56;100.00;102537.47;4933112;29;20052;-84
2023/03/02 03:14:01;;;;;;;21.08;3.38;;;;;;;6.39;100.00;102532.13;4949357;28;20059;-84
2023/03/02 03:16:30;;;;;;;13.55;2.58;;;;;;;6.54;100.00;102532.25;4933787;28;20441;-84
2023/03/02 03:19:04;;;;;;;15.93;3.92;;;;;;;6.27;100.00;102494.75;4933821;29;20055;-83
2023/03/02 03:21:31;;;;;;;14.90;2.60;;;;;;;6.36;100.00;102508.72;4929605;29;20512;-84
2023/03/02 03:23:58;;;;;;;15.65;3.25;;;;;;;6.27;100.00;102491.28;4934735;29;20059;-84
2023/03/02 03:26:25;;;;;;;18.88;3.50;;;;;;;6.32;100.00;102497.41;4946615;28;20074;-84
2023/03/02 03:28:52;;;;;;;12.60;2.75;;;;;;;6.09;100.00;102460.75;4934636;29;20482;-84
2023/03/02 03:31:19;;;;;;;15.95;3.03;;;;;;;6.23;100.00;102479.97;4928826;28;20056;-84
2023/03/02 03:33:46;;;;;;;14.00;2.40;;;;;;;6.23;100.00;102476.50;4934781;29;20051;-84
2023/03/02 03:36:12;;;;;;;16.15;2.90;;;;;;;6.14;100.00;102477.28;4933876;29;20056;-84
2023/03/02 03:38:39;;;;;;;19.35;3.83;;;;;;;6.16;100.00;102477.28;4933850;28;20464;-84
2023/03/02 03:41:06;;;;;;;15.90;3.20;;;;;;;5.94;100.00;102455.41;4934024;29;20070;-84
2023/03/02 03:43:33;;;;;;;20.35;3.38;;;;;;;5.99;100.00;102465.03;4934665;29;20405;-84
2023/03/02 03:45:59;;;;;;;17.15;3.42;;;;;;;6.20;100.00;102489.50;4933713;28;20047;-85
2023/03/02 03:48:26;;;;;;;16.70;3.17;;;;;;;6.11;100.00;102478.97;4933380;28;20131;-84
2023/03/02 03:50:53;;;;;;;16.95;3.10;;;;;;;6.16;100.00;102465.19;4933124;29;20055;-85
2023/03/02 03:53:20;;;;;;;21.83;4.78;;;;;;;5.97;100.00;102445.94;4932928;29;20063;-84
2023/03/02 03:55:47;;;;;;;12.50;2.85;;;;;;;6.18;100.00;102449.56;4932877;29;20056;-84
2023/03/02 03:58:13;;;;;;;19.77;4.18;;;;;;;6.14;100.00;102466.88;4932881;29;20098;-84
2023/03/02 04:00:40;;;;;;;17.65;2.85;;;;;;;6.12;100.00;102450.41;4925025;29;20110;-84
2023/03/02 04:03:07;;;;;;;18.92;3.75;;;;;;;6.07;100.00;102457.28;4932335;28;20052;-84
2023/03/02 04:05:34;;;;;;;16.33;3.03;;;;;;;5.99;100.00;102441.63;4932873;29;20051;-83
2023/03/02 04:08:01;;;;;;;12.70;2.63;;;;;;;6.35;100.00;102494.81;4945923;29;20720;-83
2023/03/02 04:10:28;;;;;;;16.73;2.92;;;;;;;5.87;100.00;102434.53;4933071;29;20047;-84
2023/03/02 04:12:55;;;;;;;18.00;3.72;;;;;;;6.13;100.00;102465.16;4932918;29;20062;-83
2023/03/02 04:15:23;;;;;;;13.77;3.00;;;;;;;5.94;100.00;102439.81;4934234;28;20048;-85
2023/03/02 04:17:50;;;;;;;17.58;3.25;;;;;;;6.00;100.00;102463.28;4934450;29;20417;-84
2023/03/02 04:20:19;;;;;;;11.40;2.40;;;;;;;6.47;100.00;102515.72;4930628;28;20066;-85
2023/03/02 04:22:49;;;;;;;10.55;2.50;;;;;;;6.39;100.00;102496.59;4921844;28;20051;-84
2023/03/02 04:25:18;;;;;;;11.32;2.78;;;;;;;6.32;100.00;102486.09;4932623;29;20052;-84
2023/03/02 04:27:47;;;;;;;13.35;2.67;;;;;;;6.15;100.00;102453.03;4933362;28;20052;-84
2023/03/02 04:30:16;;;;;;;12.70;2.30;;;;;;;6.22;100.00;102469.56;4932052;28;20482;-84
2023/03/02 04:32:42;;;;;;;8.23;2.45;;;;;;;6.22;100.00;102464.34;4933795;29;20474;-83
2023/03/02 04:35:10;;;;;;;15.75;2.80;;;;;;;6.51;100.00;102510.53;4932757;29;20059;-83
2023/03/02 04:37:38;;;;;;;17.80;2.85;;;;;;;6.57;100.00;102511.47;4932517;28;20052;-84
2023/03/02 04:40:06;;;;;;;12.00;2.47;;;;;;;6.13;100.00;102440.88;4933225;28;20415;-83
2023/03/02 04:42:33;;;;;;;16.65;2.70;;;;;;;6.55;100.00;102510.59;4933741;28;20051;-84
2023/03/02 04:45:00;;;;;;;19.13;3.50;;;;;;;6.28;100.00;102495.59;4936837;28;20051;-84
2023/03/02 04:47:27;;;;;;;14.52;3.17;;;;;;;5.99;100.00;102452.03;4951648;28;20054;-84
2023/03/02 04:49:55;;;;;;;15.13;2.63;;;;;;;6.10;100.00;102441.72;4937997;28;20052;-84
2023/03/02 04:52:23;;;;;;;13.82;3.05;;;;;;;6.52;100.00;102509.69;4938998;28;20086;-83
2023/03/02 04:54:51;;;;;;;17.88;2.63;;;;;;;6.26;100.00;102484.31;4933316;29;20142;-84
2023/03/02 04:57:17;;;;;;;14.70;3.20;;;;;;;6.17;100.00;102458.25;4932378;28;20055;-85
2023/03/02 04:59:44;;;;;;;17.95;5.97;;;;;;;6.10;100.00;102459.06;4931913;28;20051;-84
2023/03/02 05:02:11;;;;;;;16.20;4.38;;;;;;;6.11;100.00;102485.09;4924655;29;20055;-84
2023/03/02 05:04:39;;;;;;;17.48;3.10;;;;;;;5.77;100.00;102440.53;4933744;29;20601;-84
2023/03/02 05:07:06;;;;;;;17.73;3.60;;;;;;;5.88;100.00;102461.44;4933999;29;20063;-84
2023/03/02 05:09:32;;;;;;;13.18;2.53;;;;;;;6.25;100.00;102509.47;4932286;29;20489;-84
2023/03/02 05:12:00;;;;;;;16.92;3.38;;;;;;;6.18;100.00;102493.78;4933642;29;20060;-85
2023/03/02 05:14:28;;;;;;;11.13;2.65;;;;;;;6.29;100.00;102499.09;4933819;29;20382;-84
2023/03/02 05:16:55;;;;;;;13.93;2.95;;;;;;;5.94;100.00;102448.47;4933908;29;20405;-85
2023/03/02 05:19:22;;;;;;;13.38;2.95;;;;;;;5.90;100.00;102470.97;4932794;29;20397;-84
2023/03/02 05:21:49;;;;;;;17.35;3.30;;;;;;;6.08;100.00;102480.69;4931975;28;20058;-85
2023/03/02 05:24:16;;;;;;;10.65;2.58;;;;;;;6.03;100.00;102474.59;4933049;28;20056;-84
2023/03/02 05:26:42;;;;;;;17.90;3.25;;;;;;;5.70;100.00;102416.22;4933940;28;20423;-85
2023/03/02 05:29:09;;;;;;;13.57;3.20;;;;;;;5.80;100.00;102457.88;4932489;29;20410;-84
2023/03/02 05:31:39;;;;;;;14.20;3.17;;;;;;;6.05;100.00;102496.28;4926338;29;20471;-84
2023/03/02 05:34:08;;;;;;;12.80;3.10;;;;;;;6.15;100.00;102498.97;4933098;29;20094;-85
2023/03/02 05:36:36;;;;;;;17.77;2.95;;;;;;;5.75;100.00;102428.38;4932320;28;20402;-85
2023/03/02 05:39:04;;;;;;;17.58;3.63;;;;;;;5.77;100.00;102460.44;4932376;28;20080;-84
2023/03/02 05:41:31;;;;;;;13.55;2.45;;;;;;;5.74;100.00;102447.41;4925918;29;20405;-84
2023/03/02 05:43:58;;;;;;;18.70;3.75;;;;;;;5.83;100.00;102444.91;4931602;29;20047;-85
2023/03/02 05:46:25;;;;;;;13.60;2.88;;;;;;;5.79;100.00;102443.13;4932356;29;20048;-85
2023/03/02 05:48:52;;;;;;;13.00;2.60;;;;;;;5.69;100.00;102437.84;4932581;29;20083;-85
2023/03/02 05:51:19;;;;;;;9.75;2.17;;;;;;;5.88;100.00;102461.44;4932381;29;20063;-85
2023/03/02 05:53:46;;;;;;;14.38;2.50;;;;;;;5.62;100.00;102422.19;4948052;29;20052;-85
2023/03/02 05:56:13;;;;;;;16.35;3.28;;;;;;;5.73;100.00;102459.53;4972429;28;20047;-85
2023/03/02 05:58:39;;;;;;;17.85;3.22;;;;;;;5.67;100.00;102425.72;4933854;29;20086;-85
2023/03/02 06:01:09;;;;;;;16.40;2.90;;;;;;;5.96;100.00;102474.53;4924054;29;20573;-85
2023/03/02 06:03:40;;;;;;;8.88;2.40;;;;;;;5.54;100.00;102416.03;4940628;29;20548;-85
2023/03/02 06:06:07;;;;;;;15.63;3.28;;;;;;;5.35;100.00;102391.56;4935445;28;20051;-84
2023/03/02 06:08:39;;;;;;;14.48;4.28;;;;;;;5.30;100.00;102394.16;4936986;29;20069;-85
2023/03/02 06:11:07;;;;;;;12.52;2.90;;;;;;;5.37;100.00;102402.88;4923353;29;20058;-84
2023/03/02 06:13:34;;;;;;;15.52;3.25;;;;;;;5.53;100.00;102435.94;4936460;29;20054;-85
2023/03/02 06:16:00;;;;;;;23.55;4.18;;;;;;;5.21;100.00;102392.31;4936448;29;20063;-83
2023/03/02 06:18:27;;;;;;;12.88;2.90;;;;;;;5.55;100.00;102443.75;4935597;28;20063;-85
2023/03/02 06:20:54;;;;;;;14.40;2.60;;;;;;;5.26;100.00;102403.63;4932497;29;20048;-85
2023/03/02 06:23:21;;;;;;;16.08;2.70;;;;;;;5.13;100.00;102399.13;4937540;29;20048;-84
2023/03/02 06:25:48;;;;;;;14.43;3.70;;;;;;;5.24;100.00;102404.44;4937625;29;20062;-84
2023/03/02 06:28:18;;;;;;;12.43;3.30;;;;;;;5.11;100.00;102364.50;4937586;29;20052;-83
2023/03/02 06:30:49;;;;;;;15.63;2.80;;;;;;;5.37;100.00;102428.84;4937087;28;20051;-84
2023/03/02 06:33:18;;;;;;;13.60;2.67;;;;;;;5.53;100.00;102441.16;4937060;28;20058;-84
2023/03/02 06:35:44;;;;;;;14.57;2.97;;;;;;;5.23;100.00;102379.34;4936865;28;20044;-85
2023/03/02 06:38:11;;;;;;;15.68;3.13;;;;;;;5.40;100.00;102423.66;4938151;28;20059;-84
2023/03/02 06:40:38;;;;;;;15.75;2.60;;;;;;;5.31;100.00;102390.66;4933997;29;20047;-85
2023/03/02 06:43:05;;;;;;;15.48;2.83;;;;;;;5.54;100.00;102423.81;4937866;29;20044;-84
2023/03/02 06:45:36;;;;;;;19.83;2.60;;;;;;;5.47;100.00;102423.78;4936490;28;20067;-84
2023/03/02 06:48:04;;;;;;;16.40;3.38;;;;;;;5.59;100.00;102443.78;4937220;28;20043;-84
2023/03/02 06:50:31;;;;;;;9.88;2.65;;;;;;;5.31;100.00;102396.75;4930544;29;20052;-84
2023/03/02 06:52:58;;;;;;;14.23;3.17;;;;;;;5.56;100.00;102436.00;4941277;29;20047;-85
2023/03/02 06:55:25;;;;;;;11.45;2.92;;;;;;;5.49;100.00;102414.25;4949264;28;20070;-85
2023/03/02 06:57:52;;;;;;;13.63;4.03;;;;;;;5.45;100.00;102419.41;4945498;29;20058;-85
2023/03/02 07:00:29;;;;;;;16.92;3.60;;;;;;;5.33;100.00;102396.78;4943303;29;20492;-85
2023/03/02 07:02:55;;;;;;;13.98;3.10;;;;;;;5.52;100.00;102416.00;4938479;28;20064;-85
2023/03/02 07:05:23;;;;;;;15.48;3.63;;;;;;;5.49;100.00;102418.59;4937344;28;20493;-84
2023/03/02 07:07:50;;;;;;;13.85;3.60;;;;;;;5.41;100.00;102428.03;4937990;28;20055;-85
2023/03/02 07:10:17;;;;;;;13.30;2.60;;;;;;;5.41;100.00;102415.03;4938967;29;20055;-85
2023/03/02 07:12:44;;;;;;;13.10;3.25;;;;;;;5.42;100.00;102395.97;4945428;28;20054;-84
2023/03/02 07:15:12;;;;;;;16.45;3.53;;;;;;;5.42;100.00;102424.56;4946394;28;20059;-84
2023/03/02 07:17:41;;;;;;;18.23;3.50;;;;;;;5.42;100.00;102441.03;4942416;29;20081;-84
2023/03/02 07:20:10;;;;;;;16.10;3.67;;;;;;;5.83;100.00;102491.72;4935540;28;20576;-84
2023/03/02 07:22:37;;;;;;;16.15;3.97;;;;;;;5.62;100.00;102448.16;4935637;28;20056;-84
2023/03/02 07:25:05;;;;;;;15.48;3.08;;;;;;;5.55;100.00;102420.38;4935572;28;20051;-84
2023/03/02 07:27:32;;;;;;;11.98;2.97;;;;;;;5.58;100.00;102443.78;4934872;28;20056;-84
2023/03/02 07:29:59;;;;;;;12.68;2.60;;;;;;;5.78;100.00;102462.19;4935332;29;20063;-84
2023/03/02 07:32:26;;;;;;;17.48;3.25;;;;;;;5.62;100.00;102453.38;4925687;28;20056;-84
2023/03/02 07:34:53;;;;;;;13.38;3.00;;;;;;;5.85;100.00;102480.47;4934606;29;20052;-84
2023/03/02 07:37:20;;;;;;;14.73;3.20;;;;;;;5.56;100.00;102437.69;4935939;29;20063;-84
2023/03/02 07:39:48;;;;;;;16.17;3.10;;;;;;;5.63;100.00;102436.91;4934885;28;20346;-84
2023/03/02 07:42:15;;;;;;;20.98;3.85;;;;;;;5.50;100.00;102439.38;4921154;29;20061;-84
2023/03/02 07:44:42;;;;;;;13.82;2.78;;;;;;;5.40;100.00;102419.38;4922920;29;20056;-85
2023/03/02 07:47:09;;;;;;;18.15;3.15;;;;;;;5.43;100.00;102406.38;4935180;28;20052;-84
2023/03/02 07:49:36;;;;;;;14.02;4.28;;;;;;;5.96;100.00;102488.38;4936789;29;20458;-84
2023/03/02 07:52:06;;;;;;;20.60;2.97;;;;;;;5.74;100.00;102448.28;4936204;29;20070;-84
2023/03/02 07:54:33;;;;;;;13.65;3.40;;;;;;;6.00;100.00;102495.38;4950472;29;20051;-85
2023/03/02 07:57:00;;;;;;;15.45;3.15;;;;;;;5.76;100.00;102456.97;4934548;29;20056;-84
2023/03/02 07:59:27;;;;;;;13.57;2.88;;;;;;;5.57;100.00;102423.88;4935647;29;20058;-85
2023/03/02 08:01:55;;;;;;;14.55;3.13;;;;;;;5.86;100.00;102450.13;4934313;28;20058;-84
2023/03/02 08:04:23;;;;;;;15.77;2.97;;;;;;;5.92;100.00;102477.94;4935877;28;20055;-84
2023/03/02 08:06:50;;;;;;;23.35;4.25;;;;;;;5.45;100.00;102427.19;4934984;28;20052;-85
2023/03/02 08:09:17;;;;;;;27.42;4.75;;;;;;;5.69;100.00;102461.22;4934601;28;20055;-82
2023/03/02 08:11:46;;;;;;;16.48;3.42;;;;;;;5.71;100.00;102456.06;4935936;29;20470;-83
2023/03/02 08:14:13;;;;;;;18.27;3.50;;;;;;;5.74;100.00;102442.19;4954182;29;20055;-84
2023/03/02 08:16:40;;;;;;;14.55;3.13;;;;;;;5.77;100.00;102439.63;4953483;28;20051;-84
2023/03/02 08:19:07;;;;;;;15.73;2.97;;;;;;;5.65;100.00;102438.69;4935949;29;20056;-84
2023/03/02 08:21:34;;;;;;;12.02;3.00;;;;;;;5.80;100.00;102430.16;4919284;28;20049;-83
2023/03/02 08:24:01;;;;;;;19.60;2.88;;;;;;;5.88;100.00;102441.50;4934313;28;20135;-84
2023/03/02 08:26:28;;;;;;;17.05;3.40;;;;;;;6.05;100.00;102462.47;4934773;28;20474;-84
2023/03/02 08:28:55;;;;;;;16.27;3.70;;;;;;;5.78;100.00;102423.22;4934518;29;20052;-83
2023/03/02 08:31:21;;;;;;;22.45;3.55;;;;;;;5.67;100.00;102431.75;4928616;29;20050;-84
2023/03/02 08:33:49;;;;;;;19.30;4.13;;;;;;;5.83;100.00;102461.38;4934149;29;20052;-84
2023/03/02 08:36:18;;;;;;;16.80;2.60;;;;;;;6.03;100.00;102466.78;4934157;28;20063;-84
2023/03/02 08:38:45;;;;;;;19.02;3.25;;;;;;;5.93;100.00;102448.47;4935403;29;20052;-84
2023/03/02 08:41:15;;;;;;;13.75;2.50;;;;;;;6.17;100.00;102490.31;4935177;28;20054;-84
2023/03/02 08:43:42;;;;;;;19.98;4.43;;;;;;;5.78;100.00;102405.00;4933918;28;20079;-84
2023/03/02 08:46:10;;;;;;;16.45;3.03;;;;;;;5.87;100.00;102444.94;4935579;29;20048;-84
2023/03/02 08:48:37;;;;;;;16.30;3.50;;;;;;;5.88;100.00;102418.09;4935091;29;20052;-84
2023/03/02 08:51:08;;;;;;;24.65;3.22;;;;;;;5.81;100.00;102424.09;4935160;28;20048;-83
2023/03/02 08:53:38;;;;;;;12.43;3.17;;;;;;;6.04;100.00;102467.69;4952965;29;20051;-83
2023/03/02 08:56:15;;;;;;;16.98;3.50;;;;;;;6.05;100.00;102461.59;4936737;28;20545;-84
2023/03/02 08:58:42;;;;;;;14.93;3.15;;;;;;;5.88;100.00;102425.91;4933878;29;20058;-83
2023/03/02 09:01:21;;;;;;;13.73;3.38;;;;;;;6.18;100.00;102467.78;4925635;28;20048;-83
2023/03/02 09:03:49;;;;;;;10.23;2.92;;;;;;;5.86;100.00;102417.22;4949595;29;20056;-84
2023/03/02 09:06:16;;;;;;;17.10;3.22;;;;;;;6.33;100.00;102480.91;4932545;28;20064;-84
2023/03/02 09:08:43;;;;;;;18.85;3.40;;;;;;;6.17;100.00;102460.84;4916147;29;20052;-84
2023/03/02 09:11:10;;;;;;;13.10;2.95;;;;;;;6.41;100.00;102475.75;4928699;29;20048;-84
2023/03/02 09:13:37;;;;;;;12.27;2.80;;;;;;;6.18;100.00;102423.56;4934692;29;20135;-84
2023/03/02 09:16:05;;;;;;;17.63;3.63;;;;;;;6.15;100.00;102410.56;4933642;29;20055;-84
2023/03/02 09:18:32;;;;;;;14.98;3.72;;;;;;;6.35;100.00;102447.09;4933866;29;20055;-84
2023/03/02 09:21:00;;;;;;;20.23;3.75;;;;;;;6.33;100.00;102448.84;4933604;29;20047;-85
2023/03/02 09:23:27;;;;;;;37.75;4.53;;;;;;;6.44;100.00;102458.44;4933687;29;20062;-84
2023/03/02 09:25:54;;;;;;;14.00;2.78;;;;;;;6.37;100.00;102424.56;4938364;29;20059;-84
2023/03/02 09:28:22;;;;;;;20.15;3.55;;;;;;;6.82;100.00;102483.00;4935258;29;20060;-84
2023/03/02 09:30:56;;;;;;;12.75;3.17;;;;;;;6.71;100.00;102480.34;4940479;28;20055;-84
2023/03/02 09:33:24;;;;;;;10.38;2.25;;;;;;;6.32;100.00;102403.75;4949619;28;20055;-84
2023/03/02 09:35:50;;;;;;;18.33;3.15;;;;;;;6.43;100.00;102440.25;4936572;29;20500;-84
2023/03/02 09:38:18;;;;;;;17.17;3.83;;;;;;;6.30;100.00;102401.97;4949760;28;20052;-84
2023/03/02 09:41:06;;;;;;;15.55;3.38;;;;;;;7.00;100.00;102493.50;4933571;29;20050;-84
2023/03/02 09:43:49;;;;;;;13.10;2.80;;;;;;;7.00;100.00;102497.84;4936636;28;20060;-84
2023/03/02 09:46:25;;;;;;;18.35;3.13;;;;;;;6.46;100.00;102409.00;4933037;29;20382;-84
2023/03/02 09:49:38;;;;;;;12.57;3.15;;;;;;;6.47;100.00;102393.41;4937278;28;20083;-84
2023/03/02 09:52:27;;;;;;;14.43;2.53;;;;;;;7.14;100.00;102498.78;4926180;28;20413;-85
2023/03/02 09:54:58;;;;;;;11.38;2.67;;;;;;;6.74;100.00;102430.00;4939305;29;20054;-84
2023/03/02 09:57:34;;;;;;;11.90;2.50;;;;;;;6.60;100.00;102401.28;4939003;29;20062;-84
2023/03/02 10:00:11;;;;;;;19.55;2.92;;;;;;;6.35;100.00;102406.34;5008106;28;20054;-83
2023/03/02 10:02:53;;;;;;;;;;;;;;;6.95;100.00;102502.16;4938647;29;20056;-84
2023/03/02 10:05:33;;;;;;;11.35;2.85;;;;;;;7.10;100.00;102502.25;4938665;29;19923;-84
2023/03/02 10:08:00;;;;;;;13.52;2.78;;;;;;;6.93;100.00;102470.91;4938493;28;20063;-84
2023/03/02 10:10:36;;;;;;;11.68;2.08;;;;;;;7.02;100.00;102465.72;4938619;28;20044;-84
2023/03/02 10:13:17;;;;;;;17.80;3.63;;;;;;;6.61;100.00;102460.31;4989339;28;20061;-84
2023/03/02 10:16:07;;;;;;;10.32;3.25;;;;;;;6.80;100.00;102471.72;5019605;28;20050;-85
2023/03/02 10:18:40;;;;;;;14.73;2.95;;;;;;;6.97;100.00;102498.69;5010248;28;20058;-84
2023/03/02 10:21:36;;;;;;;15.60;3.00;;;;;;;6.95;100.00;102492.59;5019841;28;20486;-84
2023/03/02 10:24:28;;;;;;;15.45;3.13;;;;;;;6.96;100.00;102473.53;4942232;28;20060;-84
2023/03/02 10:27:19;;;;;;;13.20;2.95;;;;;;;7.11;100.00;102466.66;4938805;29;20047;-84
2023/03/02 10:29:59;;;;;;;16.55;2.75;;;;;;;6.99;100.00;102464.84;4939942;28;20052;-85
2023/03/02 10:32:34;;;;;;;13.68;2.42;;;;;;;7.35;100.00;102504.97;4938717;29;20504;-84
2023/03/02 10:35:29;;;;;;;16.90;3.45;;;;;;;6.57;100.00;102433.38;4938684;29;20055;-85
2023/03/02 10:38:06;;;;;;;12.50;3.25;;;;;;;7.14;100.00;102477.09;4938039;28;20056;-84
2023/03/02 10:40:46;;;;;;;15.13;3.88;;;;;;;6.74;100.00;102440.41;4938965;29;20055;-84
2023/03/02 10:43:24;;;;;;;16.50;3.33;;;;;;;6.99;100.00;102472.66;4937848;28;20074;-84
2023/03/02 10:46:02;;;;;;;13.43;3.10;;;;;;;7.28;100.00;102501.47;4948224;28;20060;-84
2023/03/02 10:48:29;;;;;;;18.92;2.92;;;;;;;6.78;100.00;102426.53;4976448;28;20087;-85
2023/03/02 10:50:59;;;;;;;13.35;3.13;;;;;;;7.12;100.00;102474.47;4936894;28;20051;-85
2023/03/02 10:53:26;;;;;;;13.15;2.70;;;;;;;7.03;100.00;102436.22;4937315;28;20068;-85
2023/03/02 10:55:52;;;;;;;11.00;2.75;;;;;;;7.00;100.00;102451.84;4938462;29;20489;-84
2023/03/02 10:58:30;;;;;;;14.38;3.20;;;;;;;7.07;100.00;102485.75;4937746;29;20056;-84
2023/03/02 11:01:06;;;;;;;19.70;3.40;;;;;;;7.02;100.00;102444.91;4936662;29;20058;-85
2023/03/02 11:03:33;;;;;;;18.05;3.38;;;;;;;7.26;100.00;102482.34;4938123;29;20058;-84
2023/03/02 11:06:16;;;;;;;11.93;2.55;;;;;;;7.14;100.00;102459.72;4937924;28;20051;-84
2023/03/02 11:08:43;;;;;;;;;;;;;;;7.34;100.00;102511.91;4938472;29;20052;-84
2023/03/02 11:11:22;;;;;;;17.25;3.28;;;;;;;6.74;100.00;102443.03;4937982;29;19923;-85
2023/03/02 11:13:49;;;;;;;21.90;4.03;;;;;;;6.95;100.00;102492.59;4938318;29;20134;-84
2023/03/02 11:16:16;;;;;;;20.83;3.55;;;;;;;7.15;100.00;102512.69;4937457;29;20413;-84
2023/03/02 11:19:12;;;;;;;16.27;3.03;;;;;;;7.07;100.00;102462.31;4937088;29;20056;-84
2023/03/02 11:21:44;;;;;;;17.27;3.17;;;;;;;7.28;100.00;102514.50;4937565;28;20051;-84
2023/03/02 11:24:17;;;;;;;12.57;2.80;;;;;;;7.54;100.00;102517.22;4937487;28;20481;-84
2023/03/02 11:26:46;;;;;;;12.60;3.00;;;;;;;7.35;100.00;102468.50;4937058;29;20736;-83
2023/03/02 11:29:14;;;;;;;16.80;3.20;;;;;;;7.54;100.00;102519.81;4937247;29;20060;-84
2023/03/02 11:31:44;;;;;;;22.25;4.00;;;;;;;7.34;100.00;102461.53;4937766;29;20048;-84